sensor_id;sensor_type;location;lat;lon;timestamp;P1;durP1;ratioP1;P2;durP2;ratioP2
50988;SDS011;37008;52.210;21.112;2023-10-09T00:00:23;8.30;;;3.58;;
50988;SDS011;37008;52.210;21.112;2023-10-09T00:03:05;9.13;;;4.20;;
50988;SDS011;37008;52.210;21.112;2023-10-09T00:05:32;10.18;;;3.80;;
50988;SDS011;37008;52.210;21.112;2023-10-09T00:08:13;6.93;;;3.40;;
50988;SDS011;37008;52.210;21.112;2023-10-09T00:10:47;7.03;;;3.97;;
50988;SDS011;37008;52.210;21.112;2023-10-09T00:15:56;10.77;;;3.45;;
50988;SDS011;37008;52.210;21.112;2023-10-09T00:18:26;12.15;;;4.00;;
50988;SDS011;37008;52.210;21.112;2023-10-09T00:20:58;9.65;;;4.53;;
50988;SDS011;37008;52.210;21.112;2023-10-09T00:23:38;10.48;;;4.07;;
50988;SDS011;37008;52.210;21.112;2023-10-09T00:26:08;8.00;;;3.33;;
50988;SDS011;37008;52.210;21.112;2023-10-09T00:28:35;7.05;;;3.35;;
50988;SDS011;37008;52.210;21.112;2023-10-09T00:31:03;9.43;;;3.67;;
50988;SDS011;37008;52.210;21.112;2023-10-09T00:33:33;8.20;;;3.72;;
50988;SDS011;37008;52.210;21.112;2023-10-09T00:36:03;8.65;;;4.07;;
50988;SDS011;37008;52.210;21.112;2023-10-09T00:38:35;9.60;;;4.70;;
50988;SDS011;37008;52.210;21.112;2023-10-09T00:41:03;7.32;;;3.67;;
50988;SDS011;37008;52.210;21.112;2023-10-09T00:43:35;9.20;;;3.70;;
50988;SDS011;37008;52.210;21.112;2023-10-09T00:46:02;8.32;;;3.75;;
50988;SDS011;37008;52.210;21.112;2023-10-09T00:48:46;9.85;;;3.97;;
50988;SDS011;37008;52.210;21.112;2023-10-09T00:51:13;7.05;;;3.63;;
50988;SDS011;37008;52.210;21.112;2023-10-09T00:53:47;7.68;;;3.83;;
50988;SDS011;37008;52.210;21.112;2023-10-09T00:56:16;10.00;;;4.07;;
50988;SDS011;37008;52.210;21.112;2023-10-09T00:59:04;10.13;;;3.80;;
50988;SDS011;37008;52.210;21.112;2023-10-09T01:01:45;7.53;;;3.40;;
50988;SDS011;37008;52.210;21.112;2023-10-09T01:04:30;9.18;;;3.60;;
50988;SDS011;37008;52.210;21.112;2023-10-09T01:07:01;12.48;;;3.90;;
50988;SDS011;37008;52.210;21.112;2023-10-09T01:09:49;6.90;;;3.58;;
50988;SDS011;37008;52.210;21.112;2023-10-09T01:12:18;7.97;;;3.65;;
50988;SDS011;37008;52.210;21.112;2023-10-09T01:14:44;8.60;;;3.72;;
50988;SDS011;37008;52.210;21.112;2023-10-09T01:17:11;8.73;;;4.05;;
50988;SDS011;37008;52.210;21.112;2023-10-09T01:19:43;7.95;;;4.10;;
50988;SDS011;37008;52.210;21.112;2023-10-09T01:22:09;8.85;;;3.92;;
50988;SDS011;37008;52.210;21.112;2023-10-09T01:24:40;7.75;;;4.00;;
50988;SDS011;37008;52.210;21.112;2023-10-09T01:27:07;14.50;;;3.83;;
50988;SDS011;37008;52.210;21.112;2023-10-09T01:29:42;10.15;;;3.25;;
50988;SDS011;37008;52.210;21.112;2023-10-09T01:32:09;8.65;;;3.67;;
50988;SDS011;37008;52.210;21.112;2023-10-09T01:34:41;8.80;;;3.90;;
50988;SDS011;37008;52.210;21.112;2023-10-09T01:37:10;7.88;;;4.00;;
50988;SDS011;37008;52.210;21.112;2023-10-09T01:39:43;8.18;;;3.70;;
50988;SDS011;37008;52.210;21.112;2023-10-09T01:42:10;9.65;;;3.80;;
50988;SDS011;37008;52.210;21.112;2023-10-09T01:44:36;8.77;;;3.78;;
50988;SDS011;37008;52.210;21.112;2023-10-09T01:47:08;10.55;;;3.40;;
50988;SDS011;37008;52.210;21.112;2023-10-09T01:49:38;8.13;;;3.60;;
50988;SDS011;37008;52.210;21.112;2023-10-09T01:52:09;9.10;;;3.38;;
50988;SDS011;37008;52.210;21.112;2023-10-09T01:54:37;7.03;;;3.17;;
50988;SDS011;37008;52.210;21.112;2023-10-09T01:57:07;5.63;;;3.70;;
50988;SDS011;37008;52.210;21.112;2023-10-09T01:59:40;6.85;;;3.35;;
50988;SDS011;37008;52.210;21.112;2023-10-09T02:02:12;7.25;;;3.63;;
50988;SDS011;37008;52.210;21.112;2023-10-09T02:04:53;10.50;;;3.90;;
50988;SDS011;37008;52.210;21.112;2023-10-09T02:07:30;9.52;;;3.50;;
50988;SDS011;37008;52.210;21.112;2023-10-09T02:10:05;8.73;;;3.70;;
50988;SDS011;37008;52.210;21.112;2023-10-09T02:13:02;8.13;;;3.80;;
50988;SDS011;37008;52.210;21.112;2023-10-09T02:15:32;10.68;;;4.03;;
50988;SDS011;37008;52.210;21.112;2023-10-09T02:20:51;7.22;;;3.72;;
50988;SDS011;37008;52.210;21.112;2023-10-09T02:23:24;11.30;;;3.60;;
50988;SDS011;37008;52.210;21.112;2023-10-09T02:25:58;9.45;;;3.50;;
50988;SDS011;37008;52.210;21.112;2023-10-09T02:30:58;7.85;;;4.13;;
50988;SDS011;37008;52.210;21.112;2023-10-09T02:33:26;6.63;;;3.55;;
50988;SDS011;37008;52.210;21.112;2023-10-09T02:35:58;8.23;;;4.20;;
50988;SDS011;37008;52.210;21.112;2023-10-09T02:38:30;8.73;;;3.78;;
50988;SDS011;37008;52.210;21.112;2023-10-09T02:40:58;10.05;;;4.13;;
50988;SDS011;37008;52.210;21.112;2023-10-09T02:43:32;9.38;;;3.90;;
50988;SDS011;37008;52.210;21.112;2023-10-09T02:46:13;8.52;;;4.05;;
50988;SDS011;37008;52.210;21.112;2023-10-09T02:48:42;8.32;;;3.60;;
50988;SDS011;37008;52.210;21.112;2023-10-09T02:51:11;11.90;;;4.60;;
50988;SDS011;37008;52.210;21.112;2023-10-09T02:53:46;9.55;;;4.45;;
50988;SDS011;37008;52.210;21.112;2023-10-09T02:56:14;7.00;;;3.78;;
50988;SDS011;37008;52.210;21.112;2023-10-09T02:58:42;7.88;;;4.05;;
50988;SDS011;37008;52.210;21.112;2023-10-09T03:01:11;9.52;;;3.78;;
50988;SDS011;37008;52.210;21.112;2023-10-09T03:03:39;10.43;;;3.75;;
50988;SDS011;37008;52.210;21.112;2023-10-09T03:06:09;8.05;;;3.65;;
50988;SDS011;37008;52.210;21.112;2023-10-09T03:08:36;10.30;;;4.20;;
50988;SDS011;37008;52.210;21.112;2023-10-09T03:11:02;7.75;;;3.80;;
50988;SDS011;37008;52.210;21.112;2023-10-09T03:13:31;8.43;;;4.15;;
50988;SDS011;37008;52.210;21.112;2023-10-09T03:15:58;7.57;;;4.07;;
50988;SDS011;37008;52.210;21.112;2023-10-09T03:18:24;10.20;;;4.20;;
50988;SDS011;37008;52.210;21.112;2023-10-09T03:20:49;8.75;;;4.45;;
50988;SDS011;37008;52.210;21.112;2023-10-09T03:23:15;9.13;;;3.95;;
50988;SDS011;37008;52.210;21.112;2023-10-09T03:25:41;12.30;;;4.00;;
50988;SDS011;37008;52.210;21.112;2023-10-09T03:28:10;7.30;;;4.13;;
50988;SDS011;37008;52.210;21.112;2023-10-09T03:30:36;6.38;;;3.90;;
50988;SDS011;37008;52.210;21.112;2023-10-09T03:33:05;9.95;;;3.97;;
50988;SDS011;37008;52.210;21.112;2023-10-09T03:35:32;8.27;;;4.22;;
50988;SDS011;37008;52.210;21.112;2023-10-09T03:37:59;8.07;;;4.13;;
50988;SDS011;37008;52.210;21.112;2023-10-09T03:40:31;9.80;;;4.65;;
50988;SDS011;37008;52.210;21.112;2023-10-09T03:42:57;14.68;;;4.32;;
50988;SDS011;37008;52.210;21.112;2023-10-09T03:45:22;9.57;;;4.10;;
50988;SDS011;37008;52.210;21.112;2023-10-09T03:47:53;8.13;;;3.75;;
50988;SDS011;37008;52.210;21.112;2023-10-09T03:50:26;8.15;;;4.10;;
50988;SDS011;37008;52.210;21.112;2023-10-09T03:52:55;7.90;;;4.10;;
50988;SDS011;37008;52.210;21.112;2023-10-09T03:55:21;9.23;;;3.80;;
50988;SDS011;37008;52.210;21.112;2023-10-09T03:57:52;9.68;;;3.88;;
50988;SDS011;37008;52.210;21.112;2023-10-09T04:00:18;9.77;;;4.53;;
50988;SDS011;37008;52.210;21.112;2023-10-09T04:02:51;11.18;;;4.35;;
50988;SDS011;37008;52.210;21.112;2023-10-09T04:05:17;8.73;;;4.05;;
50988;SDS011;37008;52.210;21.112;2023-10-09T04:07:43;10.60;;;4.43;;
50988;SDS011;37008;52.210;21.112;2023-10-09T04:10:08;8.75;;;3.97;;
50988;SDS011;37008;52.210;21.112;2023-10-09T04:12:53;7.43;;;4.25;;
50988;SDS011;37008;52.210;21.112;2023-10-09T04:15:18;9.07;;;4.57;;
50988;SDS011;37008;52.210;21.112;2023-10-09T04:17:48;11.38;;;4.35;;
50988;SDS011;37008;52.210;21.112;2023-10-09T04:20:16;9.25;;;4.00;;
50988;SDS011;37008;52.210;21.112;2023-10-09T04:22:44;7.47;;;4.60;;
50988;SDS011;37008;52.210;21.112;2023-10-09T04:25:24;8.07;;;4.75;;
50988;SDS011;37008;52.210;21.112;2023-10-09T04:27:57;9.50;;;4.63;;
50988;SDS011;37008;52.210;21.112;2023-10-09T04:30:39;10.63;;;4.80;;
50988;SDS011;37008;52.210;21.112;2023-10-09T04:33:08;10.85;;;5.35;;
50988;SDS011;37008;52.210;21.112;2023-10-09T04:35:53;9.10;;;4.40;;
50988;SDS011;37008;52.210;21.112;2023-10-09T04:38:48;9.00;;;4.85;;
50988;SDS011;37008;52.210;21.112;2023-10-09T04:41:40;8.90;;;4.30;;
50988;SDS011;37008;52.210;21.112;2023-10-09T04:44:08;9.05;;;5.05;;
50988;SDS011;37008;52.210;21.112;2023-10-09T04:46:47;9.77;;;5.20;;
50988;SDS011;37008;52.210;21.112;2023-10-09T04:49:47;12.02;;;5.25;;
50988;SDS011;37008;52.210;21.112;2023-10-09T04:54:56;8.27;;;4.28;;
50988;SDS011;37008;52.210;21.112;2023-10-09T04:57:34;9.55;;;5.50;;
50988;SDS011;37008;52.210;21.112;2023-10-09T05:00:24;10.63;;;4.68;;
50988;SDS011;37008;52.210;21.112;2023-10-09T05:02:53;9.60;;;4.75;;
50988;SDS011;37008;52.210;21.112;2023-10-09T05:05:21;11.15;;;4.65;;
50988;SDS011;37008;52.210;21.112;2023-10-09T05:08:02;10.65;;;4.78;;
50988;SDS011;37008;52.210;21.112;2023-10-09T05:10:44;10.60;;;5.07;;
50988;SDS011;37008;52.210;21.112;2023-10-09T05:13:23;8.20;;;4.35;;
50988;SDS011;37008;52.210;21.112;2023-10-09T05:16:07;10.30;;;5.30;;
50988;SDS011;37008;52.210;21.112;2023-10-09T05:18:47;11.88;;;5.68;;
50988;SDS011;37008;52.210;21.112;2023-10-09T05:21:37;8.02;;;4.90;;
50988;SDS011;37008;52.210;21.112;2023-10-09T05:24:07;9.68;;;5.25;;
50988;SDS011;37008;52.210;21.112;2023-10-09T05:31:53;15.18;;;5.65;;
50988;SDS011;37008;52.210;21.112;2023-10-09T05:34:27;15.05;;;5.07;;
50988;SDS011;37008;52.210;21.112;2023-10-09T05:37:07;12.93;;;5.22;;
50988;SDS011;37008;52.210;21.112;2023-10-09T05:39:45;13.15;;;4.97;;
50988;SDS011;37008;52.210;21.112;2023-10-09T05:42:34;13.23;;;5.57;;
50988;SDS011;37008;52.210;21.112;2023-10-09T05:45:10;9.95;;;4.80;;
50988;SDS011;37008;52.210;21.112;2023-10-09T05:47:42;11.05;;;4.85;;
50988;SDS011;37008;52.210;21.112;2023-10-09T05:55:33;15.93;;;11.10;;
50988;SDS011;37008;52.210;21.112;2023-10-09T05:58:34;25.60;;;15.13;;
50988;SDS011;37008;52.210;21.112;2023-10-09T06:01:18;41.53;;;23.88;;
50988;SDS011;37008;52.210;21.112;2023-10-09T06:04:02;59.05;;;32.63;;
50988;SDS011;37008;52.210;21.112;2023-10-09T06:06:45;53.67;;;26.83;;
50988;SDS011;37008;52.210;21.112;2023-10-09T06:09:14;25.83;;;13.60;;
50988;SDS011;37008;52.210;21.112;2023-10-09T06:11:44;17.20;;;12.02;;
50988;SDS011;37008;52.210;21.112;2023-10-09T06:14:20;13.38;;;7.88;;
50988;SDS011;37008;52.210;21.112;2023-10-09T06:16:50;12.52;;;5.97;;
50988;SDS011;37008;52.210;21.112;2023-10-09T06:19:22;14.40;;;7.47;;
50988;SDS011;37008;52.210;21.112;2023-10-09T06:21:52;12.63;;;5.20;;
50988;SDS011;37008;52.210;21.112;2023-10-09T06:24:38;11.57;;;5.63;;
50988;SDS011;37008;52.210;21.112;2023-10-09T06:27:10;12.38;;;5.38;;
50988;SDS011;37008;52.210;21.112;2023-10-09T06:29:37;12.43;;;4.95;;
50988;SDS011;37008;52.210;21.112;2023-10-09T06:32:15;13.82;;;6.13;;
50988;SDS011;37008;52.210;21.112;2023-10-09T06:34:48;18.67;;;9.10;;
50988;SDS011;37008;52.210;21.112;2023-10-09T06:37:22;24.30;;;13.40;;
50988;SDS011;37008;52.210;21.112;2023-10-09T06:39:49;72.13;;;38.72;;
50988;SDS011;37008;52.210;21.112;2023-10-09T06:42:33;97.43;;;52.63;;
50988;SDS011;37008;52.210;21.112;2023-10-09T06:45:09;48.45;;;28.80;;
50988;SDS011;37008;52.210;21.112;2023-10-09T06:47:38;35.50;;;20.77;;
50988;SDS011;37008;52.210;21.112;2023-10-09T06:50:10;22.00;;;11.13;;
50988;SDS011;37008;52.210;21.112;2023-10-09T06:52:45;26.52;;;17.50;;
50988;SDS011;37008;52.210;21.112;2023-10-09T06:55:26;18.35;;;10.73;;
50988;SDS011;37008;52.210;21.112;2023-10-09T06:58:01;16.55;;;8.63;;
50988;SDS011;37008;52.210;21.112;2023-10-09T07:00:37;19.73;;;9.07;;
50988;SDS011;37008;52.210;21.112;2023-10-09T07:03:25;18.83;;;9.60;;
50988;SDS011;37008;52.210;21.112;2023-10-09T07:06:09;19.37;;;10.63;;
50988;SDS011;37008;52.210;21.112;2023-10-09T07:08:57;25.08;;;15.13;;
50988;SDS011;37008;52.210;21.112;2023-10-09T07:11:38;22.35;;;10.23;;
50988;SDS011;37008;52.210;21.112;2023-10-09T07:17:04;50.88;;;27.42;;
50988;SDS011;37008;52.210;21.112;2023-10-09T07:19:50;27.33;;;13.32;;
50988;SDS011;37008;52.210;21.112;2023-10-09T07:22:19;31.27;;;14.85;;
50988;SDS011;37008;52.210;21.112;2023-10-09T07:24:48;20.08;;;12.63;;
50988;SDS011;37008;52.210;21.112;2023-10-09T07:27:29;14.30;;;7.80;;
50988;SDS011;37008;52.210;21.112;2023-10-09T07:30:19;12.80;;;7.30;;
50988;SDS011;37008;52.210;21.112;2023-10-09T07:33:01;11.85;;;5.03;;
50988;SDS011;37008;52.210;21.112;2023-10-09T07:35:37;22.67;;;13.18;;
50988;SDS011;37008;52.210;21.112;2023-10-09T07:38:10;10.75;;;6.22;;
50988;SDS011;37008;52.210;21.112;2023-10-09T07:40:39;26.00;;;14.95;;
50988;SDS011;37008;52.210;21.112;2023-10-09T07:43:24;16.25;;;6.18;;
50988;SDS011;37008;52.210;21.112;2023-10-09T07:46:17;27.25;;;10.90;;
50988;SDS011;37008;52.210;21.112;2023-10-09T07:48:55;16.95;;;7.28;;
50988;SDS011;37008;52.210;21.112;2023-10-09T07:51:22;26.15;;;12.80;;
50988;SDS011;37008;52.210;21.112;2023-10-09T07:53:55;38.83;;;17.20;;
50988;SDS011;37008;52.210;21.112;2023-10-09T07:56:25;9.43;;;5.15;;
50988;SDS011;37008;52.210;21.112;2023-10-09T07:58:55;12.18;;;5.40;;
50988;SDS011;37008;52.210;21.112;2023-10-09T08:01:25;16.70;;;6.45;;
50988;SDS011;37008;52.210;21.112;2023-10-09T08:03:54;15.85;;;5.85;;
50988;SDS011;37008;52.210;21.112;2023-10-09T08:06:25;10.02;;;5.35;;
50988;SDS011;37008;52.210;21.112;2023-10-09T08:09:08;15.32;;;4.72;;
50988;SDS011;37008;52.210;21.112;2023-10-09T08:11:37;11.77;;;4.43;;
50988;SDS011;37008;52.210;21.112;2023-10-09T08:14:10;8.15;;;4.55;;
50988;SDS011;37008;52.210;21.112;2023-10-09T08:16:55;17.88;;;7.90;;
50988;SDS011;37008;52.210;21.112;2023-10-09T08:19:45;13.13;;;5.65;;
50988;SDS011;37008;52.210;21.112;2023-10-09T08:22:28;10.50;;;4.80;;
50988;SDS011;37008;52.210;21.112;2023-10-09T08:24:54;12.43;;;5.80;;
50988;SDS011;37008;52.210;21.112;2023-10-09T08:27:27;11.93;;;5.72;;
50988;SDS011;37008;52.210;21.112;2023-10-09T08:32:53;11.55;;;4.30;;
50988;SDS011;37008;52.210;21.112;2023-10-09T08:35:30;8.30;;;4.80;;
50988;SDS011;37008;52.210;21.112;2023-10-09T08:38:11;20.05;;;7.38;;
50988;SDS011;37008;52.210;21.112;2023-10-09T08:40:37;42.28;;;19.92;;
50988;SDS011;37008;52.210;21.112;2023-10-09T08:43:21;28.52;;;15.98;;
50988;SDS011;37008;52.210;21.112;2023-10-09T08:45:48;19.45;;;10.35;;
50988;SDS011;37008;52.210;21.112;2023-10-09T08:48:18;22.20;;;13.05;;
50988;SDS011;37008;52.210;21.112;2023-10-09T08:50:46;22.73;;;11.68;;
50988;SDS011;37008;52.210;21.112;2023-10-09T08:53:13;11.50;;;6.25;;
50988;SDS011;37008;52.210;21.112;2023-10-09T08:55:41;16.33;;;6.43;;
50988;SDS011;37008;52.210;21.112;2023-10-09T08:58:08;12.43;;;5.75;;
50988;SDS011;37008;52.210;21.112;2023-10-09T09:00:46;8.95;;;4.25;;
50988;SDS011;37008;52.210;21.112;2023-10-09T09:03:14;9.15;;;4.18;;
50988;SDS011;37008;52.210;21.112;2023-10-09T09:05:41;9.85;;;4.28;;
50988;SDS011;37008;52.210;21.112;2023-10-09T09:08:22;11.43;;;4.63;;
50988;SDS011;37008;52.210;21.112;2023-10-09T09:14:02;7.93;;;4.13;;
50988;SDS011;37008;52.210;21.112;2023-10-09T09:16:39;9.70;;;4.53;;
50988;SDS011;37008;52.210;21.112;2023-10-09T09:19:09;11.50;;;3.92;;
50988;SDS011;37008;52.210;21.112;2023-10-09T09:21:56;9.10;;;4.05;;
50988;SDS011;37008;52.210;21.112;2023-10-09T09:24:24;8.85;;;4.13;;
50988;SDS011;37008;52.210;21.112;2023-10-09T09:26:51;7.32;;;3.97;;
50988;SDS011;37008;52.210;21.112;2023-10-09T09:29:43;6.30;;;3.78;;
50988;SDS011;37008;52.210;21.112;2023-10-09T09:32:17;6.57;;;3.65;;
50988;SDS011;37008;52.210;21.112;2023-10-09T09:35:01;11.43;;;3.95;;
50988;SDS011;37008;52.210;21.112;2023-10-09T09:37:33;12.30;;;4.10;;
50988;SDS011;37008;52.210;21.112;2023-10-09T09:40:08;9.68;;;3.80;;
50988;SDS011;37008;52.210;21.112;2023-10-09T09:42:43;10.10;;;3.38;;
50988;SDS011;37008;52.210;21.112;2023-10-09T09:45:15;12.90;;;3.95;;
50988;SDS011;37008;52.210;21.112;2023-10-09T09:47:43;7.38;;;3.53;;
50988;SDS011;37008;52.210;21.112;2023-10-09T09:50:17;10.38;;;3.33;;
50988;SDS011;37008;52.210;21.112;2023-10-09T09:52:49;6.30;;;3.22;;
50988;SDS011;37008;52.210;21.112;2023-10-09T09:55:21;11.57;;;3.35;;
50988;SDS011;37008;52.210;21.112;2023-10-09T09:57:58;9.75;;;3.50;;
50988;SDS011;37008;52.210;21.112;2023-10-09T10:00:28;7.93;;;3.15;;
50988;SDS011;37008;52.210;21.112;2023-10-09T10:03:08;8.05;;;3.00;;
50988;SDS011;37008;52.210;21.112;2023-10-09T10:05:43;12.57;;;4.20;;
50988;SDS011;37008;52.210;21.112;2023-10-09T10:08:16;9.70;;;3.33;;
50988;SDS011;37008;52.210;21.112;2023-10-09T10:10:45;7.93;;;3.78;;
50988;SDS011;37008;52.210;21.112;2023-10-09T10:16:11;10.90;;;3.63;;
50988;SDS011;37008;52.210;21.112;2023-10-09T10:19:16;7.82;;;2.60;;
50988;SDS011;37008;52.210;21.112;2023-10-09T10:21:41;7.75;;;3.03;;
50988;SDS011;37008;52.210;21.112;2023-10-09T10:29:56;8.03;;;2.90;;
50988;SDS011;37008;52.210;21.112;2023-10-09T10:32:53;6.20;;;2.97;;
50988;SDS011;37008;52.210;21.112;2023-10-09T10:35:23;15.32;;;5.90;;
50988;SDS011;37008;52.210;21.112;2023-10-09T10:38:00;10.97;;;6.33;;
50988;SDS011;37008;52.210;21.112;2023-10-09T10:40:40;7.85;;;4.85;;
50988;SDS011;37008;52.210;21.112;2023-10-09T10:43:15;7.70;;;3.60;;
50988;SDS011;37008;52.210;21.112;2023-10-09T10:46:07;4.80;;;2.85;;
50988;SDS011;37008;52.210;21.112;2023-10-09T10:48:39;7.13;;;3.13;;
50988;SDS011;37008;52.210;21.112;2023-10-09T10:51:05;5.63;;;2.67;;
50988;SDS011;37008;52.210;21.112;2023-10-09T10:53:31;6.13;;;3.30;;
50988;SDS011;37008;52.210;21.112;2023-10-09T10:56:12;8.95;;;3.60;;
50988;SDS011;37008;52.210;21.112;2023-10-09T10:58:39;5.32;;;3.17;;
50988;SDS011;37008;52.210;21.112;2023-10-09T11:01:23;7.57;;;2.95;;
50988;SDS011;37008;52.210;21.112;2023-10-09T11:03:50;7.00;;;2.90;;
50988;SDS011;37008;52.210;21.112;2023-10-09T11:06:29;10.25;;;3.20;;
50988;SDS011;37008;52.210;21.112;2023-10-09T11:09:08;9.77;;;2.95;;
50988;SDS011;37008;52.210;21.112;2023-10-09T11:11:46;5.57;;;2.88;;
50988;SDS011;37008;52.210;21.112;2023-10-09T11:14:12;6.70;;;2.45;;
50988;SDS011;37008;52.210;21.112;2023-10-09T11:16:48;5.72;;;2.45;;
50988;SDS011;37008;52.210;21.112;2023-10-09T11:19:22;4.18;;;2.35;;
50988;SDS011;37008;52.210;21.112;2023-10-09T11:21:58;4.68;;;2.05;;
50988;SDS011;37008;52.210;21.112;2023-10-09T11:24:30;4.38;;;1.88;;
50988;SDS011;37008;52.210;21.112;2023-10-09T11:26:59;9.00;;;2.78;;
50988;SDS011;37008;52.210;21.112;2023-10-09T11:29:31;7.20;;;2.25;;
50988;SDS011;37008;52.210;21.112;2023-10-09T11:32:13;9.55;;;2.75;;
50988;SDS011;37008;52.210;21.112;2023-10-09T11:34:47;2.80;;;1.63;;
50988;SDS011;37008;52.210;21.112;2023-10-09T11:37:20;3.50;;;1.80;;
50988;SDS011;37008;52.210;21.112;2023-10-09T11:39:56;4.10;;;1.80;;
50988;SDS011;37008;52.210;21.112;2023-10-09T11:42:23;5.03;;;1.90;;
50988;SDS011;37008;52.210;21.112;2023-10-09T11:45:07;2.70;;;1.60;;
50988;SDS011;37008;52.210;21.112;2023-10-09T11:47:48;4.90;;;2.17;;
50988;SDS011;37008;52.210;21.112;2023-10-09T11:53:16;5.75;;;1.85;;
50988;SDS011;37008;52.210;21.112;2023-10-09T11:55:49;5.47;;;2.05;;
50988;SDS011;37008;52.210;21.112;2023-10-09T11:58:17;7.15;;;2.30;;
50988;SDS011;37008;52.210;21.112;2023-10-09T12:00:50;4.70;;;1.95;;
50988;SDS011;37008;52.210;21.112;2023-10-09T12:03:18;5.57;;;2.50;;
50988;SDS011;37008;52.210;21.112;2023-10-09T12:05:48;6.38;;;2.38;;
50988;SDS011;37008;52.210;21.112;2023-10-09T12:08:14;4.78;;;2.17;;
50988;SDS011;37008;52.210;21.112;2023-10-09T12:10:41;5.55;;;2.42;;
50988;SDS011;37008;52.210;21.112;2023-10-09T12:13:07;4.75;;;2.45;;
50988;SDS011;37008;52.210;21.112;2023-10-09T12:15:33;11.23;;;5.35;;
50988;SDS011;37008;52.210;21.112;2023-10-09T12:18:05;16.92;;;8.52;;
50988;SDS011;37008;52.210;21.112;2023-10-09T12:20:34;5.13;;;2.67;;
50988;SDS011;37008;52.210;21.112;2023-10-09T12:23:01;7.85;;;4.05;;
50988;SDS011;37008;52.210;21.112;2023-10-09T12:25:30;6.10;;;2.78;;
50988;SDS011;37008;52.210;21.112;2023-10-09T12:27:57;8.10;;;3.00;;
50988;SDS011;37008;52.210;21.112;2023-10-09T12:30:26;8.75;;;3.80;;
50988;SDS011;37008;52.210;21.112;2023-10-09T12:32:54;5.97;;;3.33;;
50988;SDS011;37008;52.210;21.112;2023-10-09T12:35:22;6.35;;;3.00;;
50988;SDS011;37008;52.210;21.112;2023-10-09T12:37:52;7.15;;;2.85;;
50988;SDS011;37008;52.210;21.112;2023-10-09T12:40:19;7.32;;;3.25;;
50988;SDS011;37008;52.210;21.112;2023-10-09T12:42:52;7.72;;;3.22;;
50988;SDS011;37008;52.210;21.112;2023-10-09T12:45:18;8.65;;;3.33;;
50988;SDS011;37008;52.210;21.112;2023-10-09T12:47:50;9.25;;;3.90;;
50988;SDS011;37008;52.210;21.112;2023-10-09T12:50:26;9.15;;;3.85;;
50988;SDS011;37008;52.210;21.112;2023-10-09T12:52:56;13.68;;;3.80;;
50988;SDS011;37008;52.210;21.112;2023-10-09T12:55:26;13.25;;;3.70;;
50988;SDS011;37008;52.210;21.112;2023-10-09T12:58:01;7.53;;;3.47;;
50988;SDS011;37008;52.210;21.112;2023-10-09T13:00:34;9.63;;;3.60;;
50988;SDS011;37008;52.210;21.112;2023-10-09T13:03:03;8.57;;;4.15;;
50988;SDS011;37008;52.210;21.112;2023-10-09T13:05:38;13.13;;;4.30;;
50988;SDS011;37008;52.210;21.112;2023-10-09T13:08:16;8.68;;;4.00;;
50988;SDS011;37008;52.210;21.112;2023-10-09T13:10:51;7.80;;;4.10;;
50988;SDS011;37008;52.210;21.112;2023-10-09T13:13:29;6.78;;;3.78;;
50988;SDS011;37008;52.210;21.112;2023-10-09T13:16:16;9.85;;;4.10;;
50988;SDS011;37008;52.210;21.112;2023-10-09T13:18:55;7.50;;;4.28;;
50988;SDS011;37008;52.210;21.112;2023-10-09T13:21:22;8.70;;;4.03;;
50988;SDS011;37008;52.210;21.112;2023-10-09T13:23:49;7.97;;;4.40;;
50988;SDS011;37008;52.210;21.112;2023-10-09T13:26:16;9.98;;;4.35;;
50988;SDS011;37008;52.210;21.112;2023-10-09T13:28:44;8.13;;;3.92;;
50988;SDS011;37008;52.210;21.112;2023-10-09T13:31:10;7.90;;;4.20;;
50988;SDS011;37008;52.210;21.112;2023-10-09T13:33:39;10.25;;;4.53;;
50988;SDS011;37008;52.210;21.112;2023-10-09T13:36:06;11.68;;;4.45;;
50988;SDS011;37008;52.210;21.112;2023-10-09T13:38:42;10.50;;;5.70;;
50988;SDS011;37008;52.210;21.112;2023-10-09T13:41:11;9.13;;;4.00;;
50988;SDS011;37008;52.210;21.112;2023-10-09T13:43:40;8.13;;;4.18;;
50988;SDS011;37008;52.210;21.112;2023-10-09T13:46:11;10.65;;;4.57;;
50988;SDS011;37008;52.210;21.112;2023-10-09T13:48:37;13.25;;;4.13;;
50988;SDS011;37008;52.210;21.112;2023-10-09T13:51:06;9.05;;;4.65;;
50988;SDS011;37008;52.210;21.112;2023-10-09T13:53:34;9.68;;;4.93;;
50988;SDS011;37008;52.210;21.112;2023-10-09T13:58:45;11.63;;;4.78;;
50988;SDS011;37008;52.210;21.112;2023-10-09T14:01:12;9.93;;;4.53;;
50988;SDS011;37008;52.210;21.112;2023-10-09T14:03:51;6.47;;;4.35;;
50988;SDS011;37008;52.210;21.112;2023-10-09T14:06:24;7.72;;;4.70;;
50988;SDS011;37008;52.210;21.112;2023-10-09T14:08:57;10.25;;;4.65;;
50988;SDS011;37008;52.210;21.112;2023-10-09T14:11:23;8.13;;;4.43;;
50988;SDS011;37008;52.210;21.112;2023-10-09T14:13:50;11.05;;;5.10;;
50988;SDS011;37008;52.210;21.112;2023-10-09T14:16:16;10.93;;;4.85;;
50988;SDS011;37008;52.210;21.112;2023-10-09T14:19:00;9.77;;;5.32;;
50988;SDS011;37008;52.210;21.112;2023-10-09T14:21:32;10.15;;;5.07;;
50988;SDS011;37008;52.210;21.112;2023-10-09T14:24:02;11.02;;;4.47;;
50988;SDS011;37008;52.210;21.112;2023-10-09T14:26:28;9.43;;;4.93;;
50988;SDS011;37008;52.210;21.112;2023-10-09T14:28:55;10.75;;;5.10;;
50988;SDS011;37008;52.210;21.112;2023-10-09T14:31:24;10.45;;;4.70;;
50988;SDS011;37008;52.210;21.112;2023-10-09T14:33:53;9.80;;;5.13;;
50988;SDS011;37008;52.210;21.112;2023-10-09T14:36:22;11.07;;;5.07;;
50988;SDS011;37008;52.210;21.112;2023-10-09T14:38:50;8.02;;;4.72;;
50988;SDS011;37008;52.210;21.112;2023-10-09T14:41:20;11.60;;;5.60;;
50988;SDS011;37008;52.210;21.112;2023-10-09T14:43:51;11.98;;;5.40;;
50988;SDS011;37008;52.210;21.112;2023-10-09T14:46:17;9.57;;;4.53;;
50988;SDS011;37008;52.210;21.112;2023-10-09T14:48:54;11.80;;;5.85;;
50988;SDS011;37008;52.210;21.112;2023-10-09T14:51:24;10.48;;;4.63;;
50988;SDS011;37008;52.210;21.112;2023-10-09T14:53:53;10.40;;;4.85;;
50988;SDS011;37008;52.210;21.112;2023-10-09T14:56:22;13.15;;;4.85;;
50988;SDS011;37008;52.210;21.112;2023-10-09T14:58:54;9.10;;;4.90;;
50988;SDS011;37008;52.210;21.112;2023-10-09T15:01:25;10.98;;;6.45;;
50988;SDS011;37008;52.210;21.112;2023-10-09T15:03:56;10.68;;;5.38;;
50988;SDS011;37008;52.210;21.112;2023-10-09T15:06:29;10.32;;;5.28;;
50988;SDS011;37008;52.210;21.112;2023-10-09T15:08:58;8.63;;;5.00;;
50988;SDS011;37008;52.210;21.112;2023-10-09T15:14:02;9.57;;;5.38;;
50988;SDS011;37008;52.210;21.112;2023-10-09T15:16:30;8.57;;;4.82;;
50988;SDS011;37008;52.210;21.112;2023-10-09T15:18:56;10.68;;;5.22;;
50988;SDS011;37008;52.210;21.112;2023-10-09T15:21:27;12.80;;;5.05;;
50988;SDS011;37008;52.210;21.112;2023-10-09T15:23:56;9.82;;;4.75;;
50988;SDS011;37008;52.210;21.112;2023-10-09T15:26:22;6.15;;;4.50;;
50988;SDS011;37008;52.210;21.112;2023-10-09T15:28:49;10.77;;;4.75;;
50988;SDS011;37008;52.210;21.112;2023-10-09T15:31:16;8.52;;;4.80;;
50988;SDS011;37008;52.210;21.112;2023-10-09T15:33:43;12.05;;;4.88;;
50988;SDS011;37008;52.210;21.112;2023-10-09T15:36:12;16.95;;;6.50;;
50988;SDS011;37008;52.210;21.112;2023-10-09T15:38:39;12.75;;;5.47;;
50988;SDS011;37008;52.210;21.112;2023-10-09T15:41:05;7.40;;;5.13;;
50988;SDS011;37008;52.210;21.112;2023-10-09T15:43:34;16.00;;;5.40;;
50988;SDS011;37008;52.210;21.112;2023-10-09T15:46:00;10.07;;;4.85;;
50988;SDS011;37008;52.210;21.112;2023-10-09T15:48:26;10.32;;;5.50;;